createdAt,value
2023-06-02T00:00:25.003Z,11.85
2023-06-02T00:02:55.286Z,11.49
2023-06-02T00:05:26.512Z,11.24
2023-06-02T00:07:59.880Z,11.34
2023-06-02T00:10:29.682Z,11.24
2023-06-02T00:12:59.437Z,11.22
2023-06-02T00:15:30.672Z,11.20
2023-06-02T00:18:00.441Z,11.15
2023-06-02T00:20:30.226Z,11.16
2023-06-02T00:23:03.491Z,11.16
2023-06-02T00:25:34.256Z,11.07
2023-06-02T00:28:04.025Z,11.16
2023-06-02T00:30:34.128Z,11.41
2023-06-02T00:33:04.389Z,11.22
2023-06-02T00:35:34.444Z,11.21
2023-06-02T00:38:06.838Z,11.49
2023-06-02T00:40:36.778Z,11.07
2023-06-02T00:43:06.736Z,11.03
2023-06-02T00:45:36.530Z,11.12
2023-06-02T00:48:06.804Z,10.66
2023-06-02T00:50:36.846Z,10.90
2023-06-02T00:53:09.318Z,10.84
2023-06-02T00:55:39.130Z,10.86
2023-06-02T00:58:12.514Z,10.89
2023-06-02T01:00:42.527Z,10.79
2023-06-02T01:03:15.611Z,10.94
2023-06-02T01:05:47.438Z,11.14
2023-06-02T01:08:20.719Z,10.88
2023-06-02T01:10:50.958Z,11.21
2023-06-02T01:13:20.713Z,10.98
2023-06-02T01:15:50.489Z,11.01
2023-06-02T01:18:26.517Z,11.07
2023-06-02T01:20:58.715Z,11.11
2023-06-02T01:23:35.472Z,11.12
2023-06-02T01:26:11.018Z,11.32
2023-06-02T01:28:42.032Z,11.46
2023-06-02T01:31:19.033Z,11.08
2023-06-02T01:33:54.007Z,11.34
2023-06-02T01:36:26.664Z,10.94
2023-06-02T01:38:57.899Z,11.14
2023-06-02T01:41:31.913Z,10.76
2023-06-02T01:44:03.678Z,11.07
2023-06-02T01:46:33.794Z,11.18
2023-06-02T01:49:03.633Z,11.06
2023-06-02T01:51:33.362Z,11.09
2023-06-02T01:54:03.239Z,11.12
2023-06-02T01:56:35.553Z,11.28
2023-06-02T01:59:07.006Z,10.80
2023-06-02T02:01:37.900Z,10.81
2023-06-02T02:04:08.196Z,10.81
2023-06-02T02:06:38.404Z,10.67
2023-06-02T02:09:08.706Z,11.02
2023-06-02T02:11:41.038Z,11.12
2023-06-02T02:14:10.996Z,10.92
2023-06-02T02:16:45.693Z,11.13
2023-06-02T02:19:17.552Z,11.42
2023-06-02T02:21:47.621Z,11.24
2023-06-02T02:24:19.030Z,11.18
2023-06-02T02:26:51.303Z,11.07
2023-06-02T02:29:21.343Z,11.06
2023-06-02T02:31:51.322Z,10.85
2023-06-02T02:34:21.171Z,10.45
2023-06-02T02:36:53.303Z,10.67
2023-06-02T02:39:23.498Z,11.09
2023-06-02T02:41:56.167Z,11.05
2023-06-02T02:44:27.127Z,11.03
2023-06-02T02:46:59.702Z,11.37
2023-06-02T02:49:30.400Z,11.30
2023-06-02T02:52:00.900Z,11.13
2023-06-02T02:54:30.651Z,10.81
2023-06-02T02:57:03.213Z,10.90
2023-06-02T02:59:33.057Z,11.05
2023-06-02T03:02:02.748Z,11.49
2023-06-02T03:04:33.229Z,11.27
2023-06-02T03:07:03.836Z,11.10
2023-06-02T03:09:33.697Z,11.15
2023-06-02T03:12:07.765Z,11.35
2023-06-02T03:14:37.532Z,11.03
2023-06-02T03:17:08.047Z,11.12
2023-06-02T03:19:39.560Z,11.21
2023-06-02T03:22:09.900Z,10.95
2023-06-02T03:24:42.293Z,11.09
2023-06-02T03:27:15.079Z,10.49
2023-06-02T03:29:49.390Z,10.46
2023-06-02T03:32:23.946Z,10.42
2023-06-02T03:34:53.966Z,10.74
2023-06-02T03:37:24.256Z,10.70
2023-06-02T03:39:54.127Z,10.50
2023-06-02T03:42:27.675Z,10.41
2023-06-02T03:44:57.977Z,10.43
2023-06-02T03:47:27.720Z,10.26
2023-06-02T03:49:57.542Z,10.14
2023-06-02T03:52:28.128Z,10.22
2023-06-02T03:54:58.127Z,10.16
2023-06-02T03:57:31.436Z,9.97
2023-06-02T04:00:01.209Z,10.28
2023-06-02T04:02:31.250Z,10.25
2023-06-02T04:05:01.881Z,10.82
2023-06-02T04:07:31.729Z,10.79
2023-06-02T04:10:01.572Z,10.46
2023-06-02T04:12:33.906Z,10.40
2023-06-02T04:15:05.205Z,10.52
2023-06-02T04:17:35.686Z,10.43
2023-06-02T04:20:05.854Z,10.78
2023-06-02T04:22:38.315Z,11.01
2023-06-02T04:25:09.655Z,10.92
2023-06-02T04:27:42.053Z,11.13
2023-06-02T04:30:12.884Z,10.87
2023-06-02T04:32:43.593Z,11.14
2023-06-02T04:35:14.424Z,11.44
2023-06-02T04:37:45.510Z,11.29
2023-06-02T04:40:17.172Z,11.16
2023-06-02T04:42:50.369Z,11.11
2023-06-02T04:45:21.918Z,11.13
2023-06-02T04:47:52.996Z,11.39
2023-06-02T04:50:22.866Z,11.43
2023-06-02T04:52:52.631Z,11.53
2023-06-02T04:55:23.010Z,11.03
2023-06-02T04:57:57.909Z,11.50
2023-06-02T05:00:28.844Z,11.81
2023-06-02T05:02:59.579Z,11.58
2023-06-02T05:05:32.104Z,11.75
2023-06-02T05:08:02.357Z,11.48
2023-06-02T05:10:32.328Z,11.77
2023-06-02T05:13:04.874Z,11.60
2023-06-02T05:15:36.143Z,11.92
2023-06-02T05:18:07.439Z,11.64
2023-06-02T05:20:37.369Z,11.50
2023-06-02T05:23:07.248Z,11.44
2023-06-02T05:25:38.055Z,11.85
2023-06-02T05:28:10.660Z,11.72
2023-06-02T05:30:40.575Z,11.48
2023-06-02T05:33:10.601Z,11.73
2023-06-02T05:35:41.522Z,11.84
2023-06-02T05:38:12.090Z,12.33
2023-06-02T05:40:42.011Z,12.14
2023-06-02T05:43:14.682Z,11.54
2023-06-02T05:45:44.464Z,11.93
2023-06-02T05:48:14.752Z,11.56
2023-06-02T05:50:45.802Z,11.84
2023-06-02T05:53:16.009Z,12.29
2023-06-02T05:55:46.820Z,12.92
2023-06-02T05:58:22.442Z,13.22
2023-06-02T06:00:52.342Z,13.40
2023-06-02T06:03:22.188Z,14.02
2023-06-02T06:05:52.591Z,13.81
2023-06-02T06:08:22.415Z,13.69
2023-06-02T06:10:52.207Z,14.30
2023-06-02T06:13:24.918Z,14.46
2023-06-02T06:15:55.549Z,14.74
2023-06-02T06:18:25.588Z,14.11
2023-06-02T06:20:55.462Z,14.34
2023-06-02T06:23:26.662Z,14.11
2023-06-02T06:25:56.667Z,14.27
2023-06-02T06:28:29.219Z,14.12
2023-06-02T06:31:01.715Z,13.30
2023-06-02T06:33:31.831Z,14.49
2023-06-02T06:36:02.216Z,13.90
2023-06-02T06:38:32.145Z,13.45
2023-06-02T06:41:01.951Z,13.78
2023-06-02T06:43:34.500Z,13.42
2023-06-02T06:46:08.602Z,12.94
2023-06-02T06:48:38.492Z,13.82
2023-06-02T06:51:08.538Z,13.45
2023-06-02T06:53:38.302Z,13.67
2023-06-02T06:56:08.891Z,12.81
2023-06-02T06:58:41.403Z,13.13
2023-06-02T07:01:11.537Z,12.87
2023-06-02T07:03:44.326Z,12.75
2023-06-02T07:06:15.375Z,12.96
2023-06-02T07:08:45.141Z,12.87
2023-06-02T07:11:15.351Z,13.09
2023-06-02T07:13:47.684Z,13.00
2023-06-02T07:16:17.453Z,13.14
2023-06-02T07:18:47.242Z,13.25
2023-06-02T07:21:17.068Z,13.63
2023-06-02T07:23:46.810Z,13.54
2023-06-02T07:26:16.627Z,13.92
2023-06-02T07:28:48.964Z,13.30
2023-06-02T07:31:18.923Z,13.84
2023-06-02T07:33:48.702Z,13.27
2023-06-02T07:36:18.548Z,13.28
2023-06-02T07:38:48.474Z,13.51
2023-06-02T07:41:18.561Z,13.99
2023-06-02T07:43:51.342Z,13.53
2023-06-02T07:46:21.124Z,14.21
2023-06-02T07:48:51.209Z,13.80
2023-06-02T07:51:20.963Z,13.42
2023-06-02T07:53:50.722Z,14.14
2023-06-02T07:56:20.548Z,14.19
2023-06-02T07:58:52.897Z,14.04
2023-06-02T08:01:23.012Z,13.71
2023-06-02T08:03:53.143Z,14.14
2023-06-02T08:06:23.140Z,14.40
2023-06-02T08:08:53.174Z,14.70
2023-06-02T08:11:24.137Z,14.03
2023-06-02T08:13:56.496Z,14.77
2023-06-02T08:16:32.024Z,14.98
2023-06-02T08:19:06.094Z,15.25
2023-06-02T08:21:36.115Z,15.33
2023-06-02T08:24:06.134Z,15.29
2023-06-02T08:26:40.918Z,15.08
2023-06-02T08:29:13.649Z,15.28
2023-06-02T08:31:44.272Z,15.71
2023-06-02T08:34:14.636Z,15.54
2023-06-02T08:36:44.490Z,16.02
2023-06-02T08:39:14.318Z,14.98
2023-06-02T08:41:44.106Z,15.24
2023-06-02T08:44:18.092Z,15.67
2023-06-02T08:46:50.574Z,15.14
2023-06-02T08:49:22.557Z,15.71
2023-06-02T08:51:59.674Z,15.77
2023-06-02T08:54:29.705Z,16.16
2023-06-02T08:57:01.439Z,16.53
2023-06-02T08:59:34.081Z,16.53
2023-06-02T09:02:04.360Z,16.48
2023-06-02T09:04:37.184Z,16.53
2023-06-02T09:07:22.078Z,15.40
2023-06-02T09:09:54.738Z,15.89
2023-06-02T09:12:26.043Z,15.69
2023-06-02T09:15:14.937Z,15.74
2023-06-02T09:17:44.751Z,16.58
2023-06-02T09:20:15.970Z,16.58
2023-06-02T09:22:58.294Z,17.07
2023-06-02T09:25:29.451Z,16.16
2023-06-02T09:28:01.799Z,15.90
2023-06-02T09:30:34.111Z,16.51
2023-06-02T09:33:05.423Z,16.57
2023-06-02T09:35:36.992Z,17.25
2023-06-02T09:38:09.216Z,17.29
2023-06-02T09:40:39.285Z,16.99
2023-06-02T09:43:10.609Z,16.65
2023-06-02T09:46:06.675Z,16.59
2023-06-02T09:48:36.882Z,16.71
2023-06-02T09:51:25.142Z,16.98
2023-06-02T09:53:57.248Z,17.08
2023-06-02T09:56:29.423Z,16.56
2023-06-02T09:58:59.352Z,17.19
2023-06-02T10:01:32.071Z,17.75
2023-06-02T10:04:02.397Z,17.20
2023-06-02T10:06:48.630Z,17.41
2023-06-02T10:09:44.098Z,17.42
2023-06-02T10:12:25.215Z,17.29
2023-06-02T10:15:08.664Z,17.64
2023-06-02T10:17:51.118Z,17.45
2023-06-02T10:20:32.098Z,17.86
2023-06-02T10:23:17.181Z,17.81
2023-06-02T10:26:03.182Z,17.46
2023-06-02T10:28:34.543Z,17.75
2023-06-02T10:31:10.132Z,17.22
2023-06-02T10:33:54.590Z,18.89
2023-06-02T10:36:25.925Z,17.20
2023-06-02T10:38:57.171Z,16.79
2023-06-02T10:42:05.369Z,16.20
2023-06-02T10:44:35.098Z,17.64
2023-06-02T10:47:41.026Z,18.19
2023-06-02T10:50:15.992Z,18.54
2023-06-02T10:53:11.753Z,18.23
2023-06-02T10:55:42.822Z,18.74
2023-06-02T10:58:14.388Z,18.14
2023-06-02T11:00:51.725Z,16.81
2023-06-02T11:03:43.092Z,16.24
2023-06-02T11:06:26.558Z,15.93
2023-06-02T11:08:56.345Z,15.69
2023-06-02T11:11:57.286Z,16.80
2023-06-02T11:14:28.041Z,17.57
2023-06-02T11:17:28.026Z,16.97
2023-06-02T11:19:58.883Z,15.98
2023-06-02T11:22:31.684Z,16.15
2023-06-02T11:25:03.342Z,16.97
2023-06-02T11:27:41.536Z,16.63
2023-06-02T11:30:16.835Z,17.70
2023-06-02T11:32:49.597Z,17.94
2023-06-02T11:35:24.753Z,17.63
2023-06-02T11:38:09.547Z,17.11
2023-06-02T11:40:40.372Z,16.51
2023-06-02T11:43:10.123Z,16.63
2023-06-02T11:45:40.307Z,16.65
2023-06-02T11:48:12.661Z,17.15
2023-06-02T11:50:42.829Z,18.09
2023-06-02T11:53:18.864Z,18.12
2023-06-02T11:55:48.964Z,17.56
2023-06-02T11:58:24.518Z,18.13
2023-06-02T12:00:55.902Z,18.06
2023-06-02T12:03:27.034Z,17.54
2023-06-02T12:05:59.365Z,17.20
2023-06-02T12:08:31.762Z,18.14
2023-06-02T12:11:01.996Z,18.43
2023-06-02T12:13:34.029Z,18.69
2023-06-02T12:16:23.074Z,17.84
2023-06-02T12:18:52.857Z,16.86
2023-06-02T12:21:27.684Z,18.30
2023-06-02T12:24:02.954Z,17.75
2023-06-02T12:26:42.710Z,18.30
2023-06-02T12:29:13.076Z,17.65
2023-06-02T12:31:42.960Z,17.90
2023-06-02T12:34:12.776Z,18.11
2023-06-02T12:36:42.533Z,18.36
2023-06-02T12:39:14.862Z,18.26
2023-06-02T12:41:44.659Z,17.59
2023-06-02T12:44:14.374Z,17.63
2023-06-02T12:46:44.732Z,17.49
2023-06-02T12:49:15.042Z,18.16
2023-06-02T12:51:44.825Z,18.15
2023-06-02T12:54:17.240Z,18.04
2023-06-02T12:56:47.185Z,17.97
2023-06-02T12:59:17.093Z,17.81
2023-06-02T13:01:48.546Z,18.06
2023-06-02T13:04:19.799Z,17.70
2023-06-02T13:06:49.785Z,17.96
2023-06-02T13:09:22.079Z,17.82
2023-06-02T13:11:53.358Z,17.57
2023-06-02T13:14:23.823Z,17.43
2023-06-02T13:16:53.665Z,17.42
2023-06-02T13:19:23.787Z,18.76
2023-06-02T13:21:53.603Z,18.15
2023-06-02T13:24:26.062Z,18.20
2023-06-02T13:26:55.892Z,17.56
2023-06-02T13:29:26.106Z,18.27
2023-06-02T13:31:55.874Z,18.31
2023-06-02T13:34:25.620Z,17.51
2023-06-02T13:36:55.757Z,17.03
2023-06-02T13:39:28.079Z,17.12
2023-06-02T13:42:00.168Z,17.03
2023-06-02T13:44:29.915Z,16.44
2023-06-02T13:46:59.631Z,16.73
2023-06-02T13:49:29.353Z,16.64
2023-06-02T13:51:59.166Z,16.81
2023-06-02T13:54:31.497Z,16.63
2023-06-02T13:57:03.250Z,16.96
2023-06-02T13:59:34.575Z,17.13
2023-06-02T14:02:05.086Z,17.07
2023-06-02T14:04:34.906Z,17.47
2023-06-02T14:07:04.748Z,17.70
2023-06-02T14:09:37.606Z,17.53
2023-06-02T14:12:08.196Z,17.36
2023-06-02T14:14:37.912Z,17.78
2023-06-02T14:17:08.085Z,17.68
2023-06-02T14:19:38.356Z,17.76
2023-06-02T14:22:08.312Z,17.18
2023-06-02T14:24:40.609Z,18.14
2023-06-02T14:27:10.566Z,17.79
2023-06-02T14:29:41.035Z,17.62
2023-06-02T14:32:11.947Z,17.32
2023-06-02T14:34:42.691Z,17.45
2023-06-02T14:37:13.677Z,17.72
2023-06-02T14:39:46.029Z,18.09
2023-06-02T14:42:15.758Z,17.65
2023-06-02T14:44:45.628Z,17.97
2023-06-02T14:47:15.397Z,18.14
2023-06-02T14:49:45.194Z,17.91
2023-06-02T14:52:14.976Z,17.71
2023-06-02T14:54:47.347Z,17.94
2023-06-02T14:57:17.253Z,17.76
2023-06-02T14:59:47.189Z,18.31
2023-06-02T15:02:17.033Z,18.21
2023-06-02T15:05:05.387Z,17.51
2023-06-02T15:07:53.749Z,17.23
2023-06-02T15:10:26.590Z,17.64
2023-06-02T15:12:56.474Z,17.95
2023-06-02T15:15:26.168Z,17.92
2023-06-02T15:17:56.477Z,17.57
2023-06-02T15:20:26.276Z,17.53
2023-06-02T15:22:55.991Z,17.18
2023-06-02T15:25:28.303Z,17.00
2023-06-02T15:27:58.393Z,17.12
2023-06-02T15:30:30.185Z,17.41
2023-06-02T15:33:00.442Z,17.46
2023-06-02T15:35:31.033Z,16.90
2023-06-02T15:38:00.784Z,17.12
2023-06-02T15:40:33.403Z,17.21
2023-06-02T15:43:03.100Z,17.07
2023-06-02T15:45:32.807Z,17.31
2023-06-02T15:48:02.783Z,17.76
2023-06-02T15:50:32.684Z,17.48
2023-06-02T15:53:02.545Z,17.75
2023-06-02T15:55:34.824Z,17.79
2023-06-02T15:58:04.555Z,18.08
2023-06-02T16:00:34.255Z,18.37
2023-06-02T16:03:05.232Z,18.89
2023-06-02T16:05:36.830Z,18.32
2023-06-02T16:08:06.602Z,17.97
2023-06-02T16:10:38.874Z,18.04
2023-06-02T16:13:08.809Z,18.16
2023-06-02T16:15:38.570Z,18.25
2023-06-02T16:18:08.824Z,18.45
2023-06-02T16:20:38.623Z,17.77
2023-06-02T16:23:08.881Z,17.92
2023-06-02T16:25:41.338Z,18.59
2023-06-02T16:28:11.207Z,18.66
2023-06-02T16:30:40.929Z,18.46
2023-06-02T16:33:11.012Z,18.38
2023-06-02T16:35:41.224Z,18.15
2023-06-02T16:38:11.620Z,17.62
2023-06-02T16:40:43.977Z,17.93
2023-06-02T16:43:14.843Z,18.29
2023-06-02T16:45:44.781Z,18.39
2023-06-02T16:48:14.753Z,18.20
2023-06-02T16:50:44.904Z,18.41
2023-06-02T16:53:14.689Z,18.16
2023-06-02T16:55:47.030Z,17.91
2023-06-02T16:58:16.750Z,18.12
2023-06-02T17:00:46.922Z,18.46
2023-06-02T17:03:16.712Z,18.32
2023-06-02T17:05:47.692Z,18.56
2023-06-02T17:08:17.575Z,18.31
2023-06-02T17:10:49.894Z,17.97
2023-06-02T17:13:19.686Z,18.02
2023-06-02T17:15:49.420Z,17.83
2023-06-02T17:18:19.354Z,18.69
2023-06-02T17:20:51.450Z,18.09
2023-06-02T17:23:22.451Z,18.47
2023-06-02T17:25:55.470Z,18.47
2023-06-02T17:28:25.256Z,18.05
2023-06-02T17:30:55.598Z,18.33
2023-06-02T17:33:25.330Z,18.37
2023-06-02T17:35:55.021Z,18.50
2023-06-02T17:38:24.719Z,18.24
2023-06-02T17:40:57.102Z,18.36
2023-06-02T17:43:28.196Z,18.09
2023-06-02T17:45:59.767Z,18.21
2023-06-02T17:48:29.702Z,18.12
2023-06-02T17:50:59.403Z,17.84
2023-06-02T17:53:29.115Z,17.54
2023-06-02T17:56:01.570Z,18.04
2023-06-02T17:58:31.881Z,17.80
2023-06-02T18:01:01.850Z,18.02
2023-06-02T18:03:31.836Z,18.19
2023-06-02T18:06:01.654Z,18.31
2023-06-02T18:08:31.634Z,17.65
2023-06-02T18:11:05.323Z,17.69
2023-06-02T18:13:36.062Z,18.00
2023-06-02T18:16:06.336Z,17.88
2023-06-02T18:18:36.288Z,17.85
2023-06-02T18:21:06.616Z,17.95
2023-06-02T18:23:37.145Z,17.92
2023-06-02T18:26:09.588Z,17.71
2023-06-02T18:28:39.442Z,17.38
2023-06-02T18:31:09.344Z,16.95
2023-06-02T18:33:39.174Z,17.30
2023-06-02T18:36:09.132Z,17.32
2023-06-02T18:38:39.071Z,17.33
2023-06-02T18:41:13.889Z,17.27
2023-06-02T18:43:43.615Z,17.01
2023-06-02T18:46:13.951Z,16.76
2023-06-02T18:48:43.827Z,16.92
2023-06-02T18:51:13.626Z,16.75
2023-06-02T18:53:43.548Z,17.45
2023-06-02T18:56:16.363Z,17.13
2023-06-02T18:58:46.110Z,16.97
2023-06-02T19:01:18.625Z,16.75
2023-06-02T19:03:48.648Z,16.37
2023-06-02T19:06:18.757Z,16.13
2023-06-02T19:08:48.572Z,16.36
2023-06-02T19:11:22.680Z,15.77
2023-06-02T19:13:52.581Z,15.75
2023-06-02T19:16:22.348Z,15.58
2023-06-02T19:18:52.084Z,15.26
2023-06-02T19:21:21.968Z,15.40
2023-06-02T19:23:53.666Z,15.58
2023-06-02T19:26:27.009Z,15.33
2023-06-02T19:28:56.824Z,14.85
2023-06-02T19:31:27.013Z,14.86
2023-06-02T19:33:56.796Z,14.88
2023-06-02T19:36:26.523Z,14.53
2023-06-02T19:38:56.281Z,14.67
2023-06-02T19:41:28.772Z,14.74
2023-06-02T19:43:58.705Z,14.80
2023-06-02T19:46:28.736Z,14.73
2023-06-02T19:48:58.625Z,14.35
2023-06-02T19:51:28.441Z,14.63
2023-06-02T19:53:58.276Z,14.43
2023-06-02T19:56:30.620Z,14.30
2023-06-02T19:59:00.330Z,14.19
2023-06-02T20:01:30.254Z,14.08
2023-06-02T20:04:00.490Z,14.24
2023-06-02T20:06:30.288Z,14.01
2023-06-02T20:08:59.998Z,14.14
2023-06-02T20:11:32.365Z,13.90
2023-06-02T20:14:02.643Z,13.74
2023-06-02T20:16:32.576Z,13.62
2023-06-02T20:19:02.380Z,13.57
2023-06-02T20:21:32.382Z,13.29
2023-06-02T20:24:02.248Z,13.68
2023-06-02T20:26:34.843Z,13.66
2023-06-02T20:29:04.591Z,13.43
2023-06-02T20:31:34.394Z,13.45
2023-06-02T20:34:04.242Z,13.48
2023-06-02T20:36:33.956Z,13.60
2023-06-02T20:39:03.878Z,13.53
2023-06-02T20:41:37.637Z,13.43
2023-06-02T20:44:07.367Z,13.36
2023-06-02T20:46:37.167Z,13.38
2023-06-02T20:49:07.328Z,13.41
2023-06-02T20:51:37.338Z,13.23
2023-06-02T20:54:07.712Z,13.55
2023-06-02T20:56:40.180Z,13.42
2023-06-02T20:59:10.025Z,13.24
2023-06-02T21:01:39.793Z,13.48
2023-06-02T21:04:09.530Z,13.00
2023-06-02T21:06:39.297Z,13.40
2023-06-02T21:09:10.313Z,13.71
2023-06-02T21:11:42.667Z,13.19
2023-06-02T21:14:12.400Z,13.03
2023-06-02T21:16:42.171Z,13.70
2023-06-02T21:19:11.901Z,12.37
2023-06-02T21:21:41.635Z,13.08
2023-06-02T21:24:11.367Z,12.93
2023-06-02T21:26:43.681Z,12.94
2023-06-02T21:29:13.520Z,13.09
2023-06-02T21:31:43.452Z,12.75
2023-06-02T21:34:13.224Z,13.17
2023-06-02T21:36:42.942Z,13.21
2023-06-02T21:39:13.264Z,12.52
2023-06-02T21:41:46.977Z,12.77
2023-06-02T21:44:16.750Z,12.56
2023-06-02T21:46:46.637Z,12.93
2023-06-02T21:49:16.412Z,12.56
2023-06-02T21:51:50.383Z,13.19
2023-06-02T21:54:20.109Z,12.80
2023-06-02T21:56:52.456Z,12.00
2023-06-02T21:59:22.217Z,12.66
2023-06-02T22:01:51.995Z,12.24
2023-06-02T22:04:21.761Z,12.16
2023-06-02T22:06:51.503Z,12.20
2023-06-02T22:09:21.564Z,12.00
2023-06-02T22:11:53.947Z,12.38
2023-06-02T22:14:23.756Z,11.91
2023-06-02T22:16:53.870Z,12.22
2023-06-02T22:19:23.641Z,12.52
2023-06-02T22:21:56.034Z,12.09
2023-06-02T22:24:28.507Z,12.14
2023-06-02T22:27:01.900Z,12.00
2023-06-02T22:29:31.635Z,11.78
2023-06-02T22:32:01.460Z,11.85
2023-06-02T22:34:31.282Z,11.30
2023-06-02T22:37:01.299Z,11.89
2023-06-02T22:39:31.178Z,11.57
2023-06-02T22:42:03.491Z,11.24
2023-06-02T22:44:33.283Z,10.95
2023-06-02T22:47:03.705Z,11.41
2023-06-02T22:49:33.461Z,11.47
2023-06-02T22:52:03.376Z,11.78
2023-06-02T22:54:33.100Z,11.44
2023-06-02T22:57:05.543Z,11.19
2023-06-02T22:59:35.317Z,10.69
2023-06-02T23:02:05.523Z,10.70
2023-06-02T23:04:35.303Z,10.78
2023-06-02T23:07:05.225Z,11.11
2023-06-02T23:09:34.951Z,11.35
2023-06-02T23:12:08.191Z,11.33
2023-06-02T23:14:37.906Z,11.59
2023-06-02T23:17:08.468Z,11.13
2023-06-02T23:19:38.244Z,10.99
2023-06-02T23:22:08.407Z,10.67
2023-06-02T23:24:38.142Z,10.23
2023-06-02T23:27:11.125Z,9.87
2023-06-02T23:29:40.890Z,9.71
2023-06-02T23:32:11.296Z,10.27
2023-06-02T23:34:41.067Z,10.39
2023-06-02T23:37:10.839Z,10.88
2023-06-02T23:39:40.618Z,11.05
2023-06-02T23:42:13.072Z,10.93
2023-06-02T23:44:42.982Z,10.63
2023-06-02T23:47:17.796Z,10.91
2023-06-02T23:49:47.613Z,10.59
2023-06-02T23:52:17.700Z,10.54
2023-06-02T23:54:47.538Z,10.60
2023-06-02T23:57:20.168Z,9.64
2023-06-02T23:59:49.877Z,10.27
